sensor_id;sensor_type;location;lat;lon;timestamp;P1;durP1;ratioP1;P2;durP2;ratioP2
59169;SDS011;52474;52.236;5.114;2023-08-21T00:01:19;6.10;;;2.65;;
59169;SDS011;52474;52.236;5.114;2023-08-21T00:03:45;4.03;;;2.30;;
59169;SDS011;52474;52.236;5.114;2023-08-21T00:06:11;5.57;;;2.38;;
59169;SDS011;52474;52.236;5.114;2023-08-21T00:08:36;5.05;;;2.17;;
59169;SDS011;52474;52.236;5.114;2023-08-21T00:11:02;4.28;;;2.20;;
59169;SDS011;52474;52.236;5.114;2023-08-21T00:13:28;4.80;;;2.20;;
59169;SDS011;52474;52.236;5.114;2023-08-21T00:15:53;4.00;;;1.85;;
59169;SDS011;52474;52.236;5.114;2023-08-21T00:18:20;6.53;;;2.60;;
59169;SDS011;52474;52.236;5.114;2023-08-21T00:20:47;3.95;;;2.20;;
59169;SDS011;52474;52.236;5.114;2023-08-21T00:23:12;5.50;;;2.40;;
59169;SDS011;52474;52.236;5.114;2023-08-21T00:25:38;4.93;;;2.20;;
59169;SDS011;52474;52.236;5.114;2023-08-21T00:28:03;9.23;;;2.85;;
59169;SDS011;52474;52.236;5.114;2023-08-21T00:30:29;7.55;;;2.45;;
59169;SDS011;52474;52.236;5.114;2023-08-21T00:32:55;5.88;;;2.70;;
59169;SDS011;52474;52.236;5.114;2023-08-21T00:35:21;3.40;;;2.03;;
59169;SDS011;52474;52.236;5.114;2023-08-21T00:37:46;4.32;;;2.10;;
59169;SDS011;52474;52.236;5.114;2023-08-21T00:40:12;8.05;;;2.38;;
59169;SDS011;52474;52.236;5.114;2023-08-21T00:42:38;5.82;;;2.20;;
59169;SDS011;52474;52.236;5.114;2023-08-21T00:45:04;4.35;;;2.33;;
59169;SDS011;52474;52.236;5.114;2023-08-21T00:47:34;7.57;;;2.40;;
59169;SDS011;52474;52.236;5.114;2023-08-21T00:50:00;6.22;;;2.33;;
59169;SDS011;52474;52.236;5.114;2023-08-21T00:52:28;4.68;;;2.25;;
59169;SDS011;52474;52.236;5.114;2023-08-21T00:54:54;4.57;;;2.30;;
59169;SDS011;52474;52.236;5.114;2023-08-21T00:57:20;7.68;;;2.88;;
59169;SDS011;52474;52.236;5.114;2023-08-21T00:59:47;5.25;;;2.53;;
59169;SDS011;52474;52.236;5.114;2023-08-21T01:02:14;5.43;;;2.50;;
59169;SDS011;52474;52.236;5.114;2023-08-21T01:04:41;6.43;;;2.60;;
59169;SDS011;52474;52.236;5.114;2023-08-21T01:07:07;4.35;;;2.45;;
59169;SDS011;52474;52.236;5.114;2023-08-21T01:15:06;5.30;;;2.22;;
59169;SDS011;52474;52.236;5.114;2023-08-21T01:17:33;3.22;;;2.08;;
59169;SDS011;52474;52.236;5.114;2023-08-21T01:20:02;6.40;;;2.20;;
59169;SDS011;52474;52.236;5.114;2023-08-21T01:22:36;6.32;;;2.05;;
59169;SDS011;52474;52.236;5.114;2023-08-21T01:25:03;4.22;;;2.58;;
59169;SDS011;52474;52.236;5.114;2023-08-21T01:27:33;5.97;;;2.40;;
59169;SDS011;52474;52.236;5.114;2023-08-21T01:30:00;5.78;;;2.80;;
59169;SDS011;52474;52.236;5.114;2023-08-21T01:33:10;6.53;;;2.72;;
59169;SDS011;52474;52.236;5.114;2023-08-21T01:35:16;5.13;;;2.33;;
59169;SDS011;52474;52.236;5.114;2023-08-21T01:37:43;4.70;;;2.38;;
59169;SDS011;52474;52.236;5.114;2023-08-21T01:40:09;5.85;;;2.22;;
59169;SDS011;52474;52.236;5.114;2023-08-21T01:42:35;5.20;;;2.28;;
59169;SDS011;52474;52.236;5.114;2023-08-21T01:45:01;3.78;;;1.95;;
59169;SDS011;52474;52.236;5.114;2023-08-21T01:47:27;5.03;;;2.50;;
59169;SDS011;52474;52.236;5.114;2023-08-21T01:49:53;3.33;;;2.10;;
59169;SDS011;52474;52.236;5.114;2023-08-21T01:52:19;5.78;;;1.73;;
59169;SDS011;52474;52.236;5.114;2023-08-21T01:54:45;3.03;;;1.98;;
59169;SDS011;52474;52.236;5.114;2023-08-21T01:57:13;3.55;;;1.80;;
59169;SDS011;52474;52.236;5.114;2023-08-21T01:59:39;4.03;;;1.90;;
59169;SDS011;52474;52.236;5.114;2023-08-21T02:02:05;2.92;;;1.70;;
59169;SDS011;52474;52.236;5.114;2023-08-21T02:04:31;3.20;;;1.80;;
59169;SDS011;52474;52.236;5.114;2023-08-21T02:06:56;5.07;;;1.92;;
59169;SDS011;52474;52.236;5.114;2023-08-21T02:09:22;3.50;;;1.98;;
59169;SDS011;52474;52.236;5.114;2023-08-21T02:11:48;3.88;;;1.80;;
59169;SDS011;52474;52.236;5.114;2023-08-21T02:14:13;3.92;;;1.67;;
59169;SDS011;52474;52.236;5.114;2023-08-21T02:16:39;6.03;;;2.00;;
59169;SDS011;52474;52.236;5.114;2023-08-21T02:19:05;4.38;;;1.73;;
59169;SDS011;52474;52.236;5.114;2023-08-21T02:21:31;3.53;;;1.70;;
59169;SDS011;52474;52.236;5.114;2023-08-21T02:23:57;5.18;;;1.98;;
59169;SDS011;52474;52.236;5.114;2023-08-21T02:26:22;3.08;;;1.60;;
59169;SDS011;52474;52.236;5.114;2023-08-21T02:28:49;4.70;;;1.70;;
59169;SDS011;52474;52.236;5.114;2023-08-21T02:31:15;3.15;;;1.73;;
59169;SDS011;52474;52.236;5.114;2023-08-21T02:33:40;2.45;;;1.40;;
59169;SDS011;52474;52.236;5.114;2023-08-21T02:36:06;2.65;;;1.40;;
59169;SDS011;52474;52.236;5.114;2023-08-21T02:38:32;1.75;;;0.98;;
59169;SDS011;52474;52.236;5.114;2023-08-21T02:40:58;0.90;;;0.80;;
59169;SDS011;52474;52.236;5.114;2023-08-21T02:43:24;1.23;;;0.93;;
59169;SDS011;52474;52.236;5.114;2023-08-21T02:45:49;4.50;;;1.88;;
59169;SDS011;52474;52.236;5.114;2023-08-21T02:48:15;4.22;;;1.50;;
59169;SDS011;52474;52.236;5.114;2023-08-21T02:50:41;4.90;;;1.75;;
59169;SDS011;52474;52.236;5.114;2023-08-21T02:53:07;3.25;;;1.90;;
59169;SDS011;52474;52.236;5.114;2023-08-21T02:55:33;1.95;;;1.60;;
59169;SDS011;52474;52.236;5.114;2023-08-21T02:57:58;3.47;;;1.70;;
59169;SDS011;52474;52.236;5.114;2023-08-21T03:00:24;4.13;;;2.17;;
59169;SDS011;52474;52.236;5.114;2023-08-21T03:02:49;3.45;;;1.80;;
59169;SDS011;52474;52.236;5.114;2023-08-21T03:05:15;3.45;;;1.50;;
59169;SDS011;52474;52.236;5.114;2023-08-21T03:07:41;3.60;;;1.65;;
59169;SDS011;52474;52.236;5.114;2023-08-21T03:10:07;1.50;;;1.17;;
59169;SDS011;52474;52.236;5.114;2023-08-21T03:12:33;1.33;;;1.23;;
59169;SDS011;52474;52.236;5.114;2023-08-21T03:14:59;2.28;;;1.40;;
59169;SDS011;52474;52.236;5.114;2023-08-21T03:17:24;3.33;;;1.83;;
59169;SDS011;52474;52.236;5.114;2023-08-21T03:19:50;2.80;;;1.70;;
59169;SDS011;52474;52.236;5.114;2023-08-21T03:22:16;2.75;;;1.80;;
59169;SDS011;52474;52.236;5.114;2023-08-21T03:24:42;1.98;;;1.70;;
59169;SDS011;52474;52.236;5.114;2023-08-21T03:27:08;3.65;;;1.92;;
59169;SDS011;52474;52.236;5.114;2023-08-21T03:29:34;2.45;;;1.98;;
59169;SDS011;52474;52.236;5.114;2023-08-21T03:31:59;4.55;;;2.22;;
59169;SDS011;52474;52.236;5.114;2023-08-21T03:34:25;3.53;;;1.95;;
59169;SDS011;52474;52.236;5.114;2023-08-21T03:36:55;2.08;;;1.75;;
59169;SDS011;52474;52.236;5.114;2023-08-21T03:39:20;4.53;;;1.30;;
59169;SDS011;52474;52.236;5.114;2023-08-21T03:41:47;3.60;;;1.90;;
59169;SDS011;52474;52.236;5.114;2023-08-21T03:44:12;4.50;;;1.60;;
59169;SDS011;52474;52.236;5.114;2023-08-21T03:46:38;2.95;;;1.80;;
59169;SDS011;52474;52.236;5.114;2023-08-21T03:49:04;4.50;;;2.00;;
59169;SDS011;52474;52.236;5.114;2023-08-21T03:51:29;6.00;;;2.10;;
59169;SDS011;52474;52.236;5.114;2023-08-21T03:53:55;3.00;;;2.10;;
59169;SDS011;52474;52.236;5.114;2023-08-21T03:56:22;4.70;;;1.83;;
59169;SDS011;52474;52.236;5.114;2023-08-21T03:58:48;5.85;;;2.17;;
59169;SDS011;52474;52.236;5.114;2023-08-21T04:01:14;4.30;;;2.20;;
59169;SDS011;52474;52.236;5.114;2023-08-21T04:03:41;4.07;;;2.10;;
59169;SDS011;52474;52.236;5.114;2023-08-21T04:06:07;4.20;;;2.00;;
59169;SDS011;52474;52.236;5.114;2023-08-21T04:08:33;4.63;;;1.92;;
59169;SDS011;52474;52.236;5.114;2023-08-21T04:10:58;4.72;;;1.70;;
59169;SDS011;52474;52.236;5.114;2023-08-21T04:13:27;5.15;;;1.92;;
59169;SDS011;52474;52.236;5.114;2023-08-21T04:15:53;4.85;;;2.20;;
59169;SDS011;52474;52.236;5.114;2023-08-21T04:18:21;5.25;;;1.80;;
59169;SDS011;52474;52.236;5.114;2023-08-21T04:20:49;3.95;;;1.73;;
59169;SDS011;52474;52.236;5.114;2023-08-21T04:23:15;3.47;;;1.58;;
59169;SDS011;52474;52.236;5.114;2023-08-21T04:25:41;5.50;;;1.75;;
59169;SDS011;52474;52.236;5.114;2023-08-21T04:28:08;2.97;;;1.55;;
59169;SDS011;52474;52.236;5.114;2023-08-21T04:30:34;2.17;;;1.60;;
59169;SDS011;52474;52.236;5.114;2023-08-21T04:33:00;1.75;;;1.20;;
59169;SDS011;52474;52.236;5.114;2023-08-21T04:35:26;3.72;;;1.40;;
59169;SDS011;52474;52.236;5.114;2023-08-21T04:37:51;1.73;;;1.00;;
59169;SDS011;52474;52.236;5.114;2023-08-21T04:40:19;1.38;;;1.02;;
59169;SDS011;52474;52.236;5.114;2023-08-21T04:42:46;3.08;;;1.00;;
59169;SDS011;52474;52.236;5.114;2023-08-21T04:45:13;6.03;;;2.10;;
59169;SDS011;52474;52.236;5.114;2023-08-21T04:47:39;4.55;;;2.00;;
59169;SDS011;52474;52.236;5.114;2023-08-21T04:50:04;4.20;;;1.85;;
59169;SDS011;52474;52.236;5.114;2023-08-21T04:52:30;2.72;;;2.03;;
59169;SDS011;52474;52.236;5.114;2023-08-21T04:54:56;3.85;;;2.22;;
59169;SDS011;52474;52.236;5.114;2023-08-21T04:57:22;3.55;;;2.10;;
59169;SDS011;52474;52.236;5.114;2023-08-21T04:59:48;5.22;;;2.15;;
59169;SDS011;52474;52.236;5.114;2023-08-21T05:02:14;3.78;;;2.03;;
59169;SDS011;52474;52.236;5.114;2023-08-21T05:04:39;3.50;;;2.03;;
59169;SDS011;52474;52.236;5.114;2023-08-21T05:07:06;1.90;;;1.65;;
59169;SDS011;52474;52.236;5.114;2023-08-21T05:09:32;2.70;;;1.52;;
59169;SDS011;52474;52.236;5.114;2023-08-21T05:11:58;2.80;;;1.60;;
59169;SDS011;52474;52.236;5.114;2023-08-21T05:14:24;4.35;;;1.70;;
59169;SDS011;52474;52.236;5.114;2023-08-21T05:16:50;3.78;;;1.67;;
59169;SDS011;52474;52.236;5.114;2023-08-21T05:19:17;4.20;;;1.75;;
59169;SDS011;52474;52.236;5.114;2023-08-21T05:21:43;2.55;;;1.90;;
59169;SDS011;52474;52.236;5.114;2023-08-21T05:24:10;3.47;;;1.60;;
59169;SDS011;52474;52.236;5.114;2023-08-21T05:26:39;5.13;;;2.20;;
59169;SDS011;52474;52.236;5.114;2023-08-21T05:29:05;5.03;;;2.10;;
59169;SDS011;52474;52.236;5.114;2023-08-21T05:31:31;4.30;;;2.13;;
59169;SDS011;52474;52.236;5.114;2023-08-21T05:33:57;5.82;;;2.97;;
59169;SDS011;52474;52.236;5.114;2023-08-21T05:36:23;4.28;;;2.90;;
59169;SDS011;52474;52.236;5.114;2023-08-21T05:38:48;5.32;;;2.65;;
59169;SDS011;52474;52.236;5.114;2023-08-21T05:41:17;6.05;;;3.10;;
59169;SDS011;52474;52.236;5.114;2023-08-21T05:43:43;5.25;;;2.55;;
59169;SDS011;52474;52.236;5.114;2023-08-21T05:46:11;5.07;;;2.95;;
59169;SDS011;52474;52.236;5.114;2023-08-21T05:48:37;3.70;;;2.58;;
59169;SDS011;52474;52.236;5.114;2023-08-21T05:51:03;9.18;;;3.92;;
59169;SDS011;52474;52.236;5.114;2023-08-21T05:53:30;8.40;;;4.20;;
59169;SDS011;52474;52.236;5.114;2023-08-21T05:55:56;6.40;;;3.25;;
59169;SDS011;52474;52.236;5.114;2023-08-21T05:58:22;6.78;;;3.40;;
59169;SDS011;52474;52.236;5.114;2023-08-21T06:00:48;6.47;;;3.60;;
59169;SDS011;52474;52.236;5.114;2023-08-21T06:03:14;4.80;;;3.10;;
59169;SDS011;52474;52.236;5.114;2023-08-21T06:06:03;6.07;;;3.80;;
59169;SDS011;52474;52.236;5.114;2023-08-21T06:08:29;5.93;;;3.45;;
59169;SDS011;52474;52.236;5.114;2023-08-21T06:10:54;7.32;;;3.85;;
59169;SDS011;52474;52.236;5.114;2023-08-21T06:13:20;6.65;;;3.90;;
59169;SDS011;52474;52.236;5.114;2023-08-21T06:15:48;6.72;;;3.33;;
59169;SDS011;52474;52.236;5.114;2023-08-21T06:18:14;7.18;;;3.83;;
59169;SDS011;52474;52.236;5.114;2023-08-21T06:20:43;6.38;;;4.10;;
59169;SDS011;52474;52.236;5.114;2023-08-21T06:23:10;8.00;;;4.35;;
59169;SDS011;52474;52.236;5.114;2023-08-21T06:25:36;7.65;;;4.38;;
59169;SDS011;52474;52.236;5.114;2023-08-21T06:28:03;5.65;;;4.10;;
59169;SDS011;52474;52.236;5.114;2023-08-21T06:30:29;10.70;;;4.38;;
59169;SDS011;52474;52.236;5.114;2023-08-21T06:32:55;7.43;;;4.78;;
59169;SDS011;52474;52.236;5.114;2023-08-21T06:35:21;10.00;;;4.75;;
59169;SDS011;52474;52.236;5.114;2023-08-21T06:37:47;7.68;;;4.40;;
59169;SDS011;52474;52.236;5.114;2023-08-21T06:40:12;9.55;;;4.10;;
59169;SDS011;52474;52.236;5.114;2023-08-21T06:42:38;6.40;;;4.20;;
59169;SDS011;52474;52.236;5.114;2023-08-21T06:45:04;8.65;;;4.65;;
59169;SDS011;52474;52.236;5.114;2023-08-21T06:47:31;8.32;;;4.07;;
59169;SDS011;52474;52.236;5.114;2023-08-21T06:49:57;13.32;;;5.20;;
59169;SDS011;52474;52.236;5.114;2023-08-21T06:52:23;7.68;;;4.20;;
59169;SDS011;52474;52.236;5.114;2023-08-21T06:54:48;8.82;;;4.90;;
59169;SDS011;52474;52.236;5.114;2023-08-21T06:57:14;9.10;;;5.05;;
59169;SDS011;52474;52.236;5.114;2023-08-21T06:59:40;9.88;;;6.05;;
59169;SDS011;52474;52.236;5.114;2023-08-21T07:02:05;10.02;;;5.25;;
59169;SDS011;52474;52.236;5.114;2023-08-21T07:04:31;12.25;;;5.50;;
59169;SDS011;52474;52.236;5.114;2023-08-21T07:06:58;10.57;;;5.10;;
59169;SDS011;52474;52.236;5.114;2023-08-21T07:09:24;7.53;;;4.55;;
59169;SDS011;52474;52.236;5.114;2023-08-21T07:11:50;12.15;;;5.25;;
59169;SDS011;52474;52.236;5.114;2023-08-21T07:14:15;14.45;;;4.82;;
59169;SDS011;52474;52.236;5.114;2023-08-21T07:16:42;10.98;;;4.53;;
59169;SDS011;52474;52.236;5.114;2023-08-21T07:19:08;12.32;;;4.70;;
59169;SDS011;52474;52.236;5.114;2023-08-21T07:21:34;10.00;;;4.90;;
59169;SDS011;52474;52.236;5.114;2023-08-21T07:24:02;12.25;;;4.40;;
59169;SDS011;52474;52.236;5.114;2023-08-21T07:26:28;10.52;;;3.83;;
59169;SDS011;52474;52.236;5.114;2023-08-21T07:28:54;7.85;;;3.20;;
59169;SDS011;52474;52.236;5.114;2023-08-21T07:31:20;9.35;;;3.70;;
59169;SDS011;52474;52.236;5.114;2023-08-21T07:33:45;6.55;;;3.03;;
59169;SDS011;52474;52.236;5.114;2023-08-21T07:36:11;5.25;;;2.92;;
59169;SDS011;52474;52.236;5.114;2023-08-21T07:38:44;9.10;;;3.35;;
59169;SDS011;52474;52.236;5.114;2023-08-21T07:41:10;7.85;;;3.03;;
59169;SDS011;52474;52.236;5.114;2023-08-21T07:43:37;6.13;;;2.72;;
59169;SDS011;52474;52.236;5.114;2023-08-21T07:46:06;10.00;;;3.28;;
59169;SDS011;52474;52.236;5.114;2023-08-21T07:48:32;8.68;;;3.10;;
59169;SDS011;52474;52.236;5.114;2023-08-21T07:50:58;6.55;;;3.75;;
59169;SDS011;52474;52.236;5.114;2023-08-21T07:53:25;7.65;;;3.13;;
59169;SDS011;52474;52.236;5.114;2023-08-21T07:55:51;6.05;;;4.30;;
59169;SDS011;52474;52.236;5.114;2023-08-21T07:58:17;7.57;;;4.70;;
59169;SDS011;52474;52.236;5.114;2023-08-21T08:00:44;6.22;;;4.00;;
59169;SDS011;52474;52.236;5.114;2023-08-21T08:03:10;9.50;;;5.18;;
59169;SDS011;52474;52.236;5.114;2023-08-21T08:05:37;8.93;;;4.80;;
59169;SDS011;52474;52.236;5.114;2023-08-21T08:08:03;6.60;;;6.03;;
59169;SDS011;52474;52.236;5.114;2023-08-21T08:10:29;6.95;;;5.55;;
59169;SDS011;52474;52.236;5.114;2023-08-21T08:12:55;7.60;;;6.80;;
59169;SDS011;52474;52.236;5.114;2023-08-21T08:15:21;10.23;;;6.13;;
59169;SDS011;52474;52.236;5.114;2023-08-21T08:17:47;9.20;;;8.32;;
59169;SDS011;52474;52.236;5.114;2023-08-21T08:20:17;11.23;;;7.43;;
59169;SDS011;52474;52.236;5.114;2023-08-21T08:22:43;10.35;;;7.07;;
59169;SDS011;52474;52.236;5.114;2023-08-21T08:25:09;10.25;;;9.23;;
59169;SDS011;52474;52.236;5.114;2023-08-21T08:27:35;11.48;;;8.13;;
59169;SDS011;52474;52.236;5.114;2023-08-21T08:30:01;11.05;;;10.23;;
59169;SDS011;52474;52.236;5.114;2023-08-21T08:32:29;12.40;;;11.40;;
59169;SDS011;52474;52.236;5.114;2023-08-21T08:34:54;10.55;;;9.82;;
59169;SDS011;52474;52.236;5.114;2023-08-21T08:37:20;11.20;;;10.30;;
59169;SDS011;52474;52.236;5.114;2023-08-21T08:39:46;13.05;;;11.80;;
59169;SDS011;52474;52.236;5.114;2023-08-21T08:42:12;14.25;;;13.25;;
59169;SDS011;52474;52.236;5.114;2023-08-21T08:44:39;13.63;;;12.63;;
59169;SDS011;52474;52.236;5.114;2023-08-21T08:47:06;18.27;;;16.80;;
59169;SDS011;52474;52.236;5.114;2023-08-21T08:49:33;17.95;;;16.80;;
59169;SDS011;52474;52.236;5.114;2023-08-21T08:51:59;15.40;;;14.13;;
59169;SDS011;52474;52.236;5.114;2023-08-21T08:54:26;16.45;;;15.25;;
59169;SDS011;52474;52.236;5.114;2023-08-21T08:56:52;18.23;;;16.88;;
59169;SDS011;52474;52.236;5.114;2023-08-21T08:59:18;17.00;;;15.57;;
59169;SDS011;52474;52.236;5.114;2023-08-21T09:01:44;16.42;;;15.15;;
59169;SDS011;52474;52.236;5.114;2023-08-21T09:04:10;16.13;;;14.80;;
59169;SDS011;52474;52.236;5.114;2023-08-21T09:06:36;15.15;;;13.95;;
59169;SDS011;52474;52.236;5.114;2023-08-21T09:09:03;17.30;;;16.10;;
59169;SDS011;52474;52.236;5.114;2023-08-21T09:11:29;18.88;;;17.52;;
59169;SDS011;52474;52.236;5.114;2023-08-21T09:13:55;16.92;;;15.63;;
59169;SDS011;52474;52.236;5.114;2023-08-21T09:16:21;17.50;;;16.13;;
59169;SDS011;52474;52.236;5.114;2023-08-21T09:18:48;21.15;;;19.85;;
59169;SDS011;52474;52.236;5.114;2023-08-21T09:21:18;21.70;;;20.55;;
59169;SDS011;52474;52.236;5.114;2023-08-21T09:23:44;18.67;;;17.40;;
59169;SDS011;52474;52.236;5.114;2023-08-21T09:26:20;23.58;;;22.23;;
59169;SDS011;52474;52.236;5.114;2023-08-21T09:28:47;19.10;;;17.63;;
59169;SDS011;52474;52.236;5.114;2023-08-21T09:31:13;19.88;;;18.77;;
59169;SDS011;52474;52.236;5.114;2023-08-21T09:33:39;23.35;;;22.10;;
59169;SDS011;52474;52.236;5.114;2023-08-21T09:36:06;19.55;;;18.25;;
59169;SDS011;52474;52.236;5.114;2023-08-21T09:38:33;21.70;;;20.33;;
59169;SDS011;52474;52.236;5.114;2023-08-21T09:43:26;24.13;;;22.40;;
59169;SDS011;52474;52.236;5.114;2023-08-21T09:45:55;23.10;;;21.63;;
59169;SDS011;52474;52.236;5.114;2023-08-21T09:48:24;22.85;;;21.55;;
59169;SDS011;52474;52.236;5.114;2023-08-21T09:50:55;23.70;;;22.20;;
59169;SDS011;52474;52.236;5.114;2023-08-21T09:53:21;23.42;;;21.92;;
59169;SDS011;52474;52.236;5.114;2023-08-21T09:56:06;24.38;;;23.08;;
59169;SDS011;52474;52.236;5.114;2023-08-21T09:58:36;28.60;;;26.90;;
59169;SDS011;52474;52.236;5.114;2023-08-21T10:01:04;29.65;;;28.08;;
59169;SDS011;52474;52.236;5.114;2023-08-21T10:03:40;30.00;;;28.48;;
59169;SDS011;52474;52.236;5.114;2023-08-21T10:06:10;25.77;;;24.08;;
59169;SDS011;52474;52.236;5.114;2023-08-21T10:08:37;27.02;;;25.38;;
59169;SDS011;52474;52.236;5.114;2023-08-21T10:11:07;25.70;;;24.17;;
59169;SDS011;52474;52.236;5.114;2023-08-21T10:13:34;27.25;;;25.67;;
59169;SDS011;52474;52.236;5.114;2023-08-21T10:16:03;22.30;;;21.00;;
59169;SDS011;52474;52.236;5.114;2023-08-21T10:18:34;26.77;;;25.15;;
59169;SDS011;52474;52.236;5.114;2023-08-21T10:21:10;20.77;;;19.55;;
59169;SDS011;52474;52.236;5.114;2023-08-21T10:23:40;23.75;;;22.42;;
59169;SDS011;52474;52.236;5.114;2023-08-21T10:26:07;25.00;;;23.55;;
59169;SDS011;52474;52.236;5.114;2023-08-21T10:28:54;27.83;;;26.33;;
59169;SDS011;52474;52.236;5.114;2023-08-21T10:31:41;29.40;;;27.80;;
59169;SDS011;52474;52.236;5.114;2023-08-21T10:34:12;31.80;;;30.13;;
59169;SDS011;52474;52.236;5.114;2023-08-21T10:39:14;29.75;;;28.25;;
59169;SDS011;52474;52.236;5.114;2023-08-21T10:42:05;33.85;;;32.15;;
59169;SDS011;52474;52.236;5.114;2023-08-21T10:47:15;30.70;;;29.00;;
59169;SDS011;52474;52.236;5.114;2023-08-21T10:49:45;31.73;;;30.13;;
59169;SDS011;52474;52.236;5.114;2023-08-21T10:52:12;32.07;;;30.50;;
59169;SDS011;52474;52.236;5.114;2023-08-21T10:54:43;26.67;;;25.17;;
59169;SDS011;52474;52.236;5.114;2023-08-21T10:57:10;33.30;;;31.45;;
59169;SDS011;52474;52.236;5.114;2023-08-21T10:59:36;31.83;;;30.23;;
59169;SDS011;52474;52.236;5.114;2023-08-21T11:02:01;31.70;;;29.95;;
59169;SDS011;52474;52.236;5.114;2023-08-21T11:04:28;30.88;;;29.52;;
59169;SDS011;52474;52.236;5.114;2023-08-21T11:06:54;29.77;;;28.25;;
59169;SDS011;52474;52.236;5.114;2023-08-21T11:09:21;25.90;;;24.70;;
59169;SDS011;52474;52.236;5.114;2023-08-21T11:11:47;29.33;;;27.95;;
59169;SDS011;52474;52.236;5.114;2023-08-21T11:14:13;25.50;;;24.20;;
59169;SDS011;52474;52.236;5.114;2023-08-21T11:16:38;29.08;;;27.38;;
59169;SDS011;52474;52.236;5.114;2023-08-21T11:19:04;24.38;;;23.17;;
59169;SDS011;52474;52.236;5.114;2023-08-21T11:21:33;28.50;;;27.13;;
59169;SDS011;52474;52.236;5.114;2023-08-21T11:23:58;26.58;;;25.38;;
59169;SDS011;52474;52.236;5.114;2023-08-21T11:26:24;22.63;;;21.25;;
59169;SDS011;52474;52.236;5.114;2023-08-21T11:28:50;24.42;;;22.95;;
59169;SDS011;52474;52.236;5.114;2023-08-21T11:31:16;25.65;;;24.13;;
59169;SDS011;52474;52.236;5.114;2023-08-21T11:33:48;24.58;;;23.33;;
59169;SDS011;52474;52.236;5.114;2023-08-21T11:36:15;29.80;;;28.40;;
59169;SDS011;52474;52.236;5.114;2023-08-21T11:38:41;28.67;;;26.80;;
59169;SDS011;52474;52.236;5.114;2023-08-21T11:41:07;27.67;;;26.27;;
59169;SDS011;52474;52.236;5.114;2023-08-21T11:46:02;24.27;;;23.08;;
59169;SDS011;52474;52.236;5.114;2023-08-21T11:48:29;30.80;;;29.33;;
59169;SDS011;52474;52.236;5.114;2023-08-21T11:50:55;28.73;;;27.40;;
59169;SDS011;52474;52.236;5.114;2023-08-21T11:56:02;25.70;;;24.45;;
59169;SDS011;52474;52.236;5.114;2023-08-21T11:58:36;25.25;;;24.05;;
59169;SDS011;52474;52.236;5.114;2023-08-21T12:01:03;22.80;;;21.60;;
59169;SDS011;52474;52.236;5.114;2023-08-21T12:03:30;25.27;;;24.17;;
59169;SDS011;52474;52.236;5.114;2023-08-21T12:06:03;19.92;;;18.88;;
59169;SDS011;52474;52.236;5.114;2023-08-21T12:08:30;20.35;;;19.20;;
59169;SDS011;52474;52.236;5.114;2023-08-21T12:10:56;20.95;;;19.80;;
59169;SDS011;52474;52.236;5.114;2023-08-21T12:13:21;18.73;;;17.75;;
59169;SDS011;52474;52.236;5.114;2023-08-21T12:15:47;19.35;;;18.55;;
59169;SDS011;52474;52.236;5.114;2023-08-21T12:18:13;16.00;;;15.00;;
59169;SDS011;52474;52.236;5.114;2023-08-21T12:20:38;17.67;;;16.60;;
59169;SDS011;52474;52.236;5.114;2023-08-21T12:23:04;15.45;;;14.52;;
59169;SDS011;52474;52.236;5.114;2023-08-21T12:25:30;13.30;;;12.55;;
59169;SDS011;52474;52.236;5.114;2023-08-21T12:27:57;12.98;;;12.07;;
59169;SDS011;52474;52.236;5.114;2023-08-21T12:30:22;12.25;;;11.55;;
59169;SDS011;52474;52.236;5.114;2023-08-21T12:32:48;11.63;;;10.77;;
59169;SDS011;52474;52.236;5.114;2023-08-21T12:35:14;11.32;;;10.40;;
59169;SDS011;52474;52.236;5.114;2023-08-21T12:37:39;11.23;;;10.43;;
59169;SDS011;52474;52.236;5.114;2023-08-21T12:40:05;10.60;;;9.70;;
59169;SDS011;52474;52.236;5.114;2023-08-21T12:42:31;11.35;;;10.60;;
59169;SDS011;52474;52.236;5.114;2023-08-21T12:44:57;7.70;;;7.00;;
59169;SDS011;52474;52.236;5.114;2023-08-21T12:47:23;7.40;;;6.72;;
59169;SDS011;52474;52.236;5.114;2023-08-21T12:49:48;5.93;;;5.43;;
59169;SDS011;52474;52.236;5.114;2023-08-21T12:52:14;7.70;;;6.28;;
59169;SDS011;52474;52.236;5.114;2023-08-21T12:54:39;5.65;;;5.15;;
59169;SDS011;52474;52.236;5.114;2023-08-21T12:57:05;5.15;;;4.85;;
59169;SDS011;52474;52.236;5.114;2023-08-21T12:59:31;6.57;;;6.07;;
59169;SDS011;52474;52.236;5.114;2023-08-21T13:01:59;5.47;;;5.07;;
59169;SDS011;52474;52.236;5.114;2023-08-21T13:06:51;5.30;;;4.80;;
59169;SDS011;52474;52.236;5.114;2023-08-21T13:09:17;5.72;;;4.55;;
59169;SDS011;52474;52.236;5.114;2023-08-21T13:11:42;5.00;;;4.32;;
59169;SDS011;52474;52.236;5.114;2023-08-21T13:14:08;6.18;;;5.50;;
59169;SDS011;52474;52.236;5.114;2023-08-21T13:16:33;5.25;;;3.80;;
59169;SDS011;52474;52.236;5.114;2023-08-21T13:18:59;6.07;;;4.20;;
59169;SDS011;52474;52.236;5.114;2023-08-21T13:21:25;6.25;;;4.75;;
59169;SDS011;52474;52.236;5.114;2023-08-21T13:23:50;5.70;;;5.20;;
59169;SDS011;52474;52.236;5.114;2023-08-21T13:26:16;4.70;;;4.30;;
59169;SDS011;52474;52.236;5.114;2023-08-21T13:28:42;6.10;;;5.50;;
59169;SDS011;52474;52.236;5.114;2023-08-21T13:31:07;4.65;;;3.58;;
59169;SDS011;52474;52.236;5.114;2023-08-21T13:33:43;5.50;;;4.82;;
59169;SDS011;52474;52.236;5.114;2023-08-21T13:36:19;5.53;;;4.68;;
59169;SDS011;52474;52.236;5.114;2023-08-21T13:38:45;4.90;;;4.50;;
59169;SDS011;52474;52.236;5.114;2023-08-21T13:41:11;3.67;;;3.38;;
59169;SDS011;52474;52.236;5.114;2023-08-21T13:43:37;5.15;;;3.53;;
59169;SDS011;52474;52.236;5.114;2023-08-21T13:46:03;4.95;;;4.65;;
59169;SDS011;52474;52.236;5.114;2023-08-21T13:48:30;3.58;;;3.30;;
59169;SDS011;52474;52.236;5.114;2023-08-21T13:50:56;3.90;;;3.10;;
59169;SDS011;52474;52.236;5.114;2023-08-21T13:53:22;3.85;;;3.53;;
59169;SDS011;52474;52.236;5.114;2023-08-21T13:55:47;3.50;;;3.22;;
59169;SDS011;52474;52.236;5.114;2023-08-21T13:58:13;3.88;;;3.53;;
59169;SDS011;52474;52.236;5.114;2023-08-21T14:00:39;4.60;;;4.00;;
59169;SDS011;52474;52.236;5.114;2023-08-21T14:03:04;4.40;;;3.25;;
59169;SDS011;52474;52.236;5.114;2023-08-21T14:05:30;4.53;;;4.22;;
59169;SDS011;52474;52.236;5.114;2023-08-21T14:07:57;4.53;;;3.60;;
59169;SDS011;52474;52.236;5.114;2023-08-21T14:10:23;4.55;;;3.53;;
59169;SDS011;52474;52.236;5.114;2023-08-21T14:12:49;5.10;;;3.53;;
59169;SDS011;52474;52.236;5.114;2023-08-21T14:15:14;3.85;;;3.47;;
59169;SDS011;52474;52.236;5.114;2023-08-21T14:17:40;3.58;;;2.53;;
59169;SDS011;52474;52.236;5.114;2023-08-21T14:20:06;4.85;;;3.78;;
59169;SDS011;52474;52.236;5.114;2023-08-21T14:22:32;4.68;;;2.80;;
59169;SDS011;52474;52.236;5.114;2023-08-21T14:24:58;4.35;;;2.60;;
59169;SDS011;52474;52.236;5.114;2023-08-21T14:27:24;3.47;;;2.65;;
59169;SDS011;52474;52.236;5.114;2023-08-21T14:29:50;3.08;;;2.78;;
59169;SDS011;52474;52.236;5.114;2023-08-21T14:32:15;3.78;;;2.42;;
59169;SDS011;52474;52.236;5.114;2023-08-21T14:34:41;7.68;;;4.78;;
59169;SDS011;52474;52.236;5.114;2023-08-21T14:37:07;4.32;;;2.80;;
59169;SDS011;52474;52.236;5.114;2023-08-21T14:39:33;2.55;;;2.35;;
59169;SDS011;52474;52.236;5.114;2023-08-21T14:41:59;3.47;;;3.13;;
59169;SDS011;52474;52.236;5.114;2023-08-21T14:44:25;3.88;;;2.28;;
59169;SDS011;52474;52.236;5.114;2023-08-21T14:46:52;3.15;;;2.25;;
59169;SDS011;52474;52.236;5.114;2023-08-21T14:49:19;5.13;;;2.30;;
59169;SDS011;52474;52.236;5.114;2023-08-21T14:51:45;3.55;;;2.33;;
59169;SDS011;52474;52.236;5.114;2023-08-21T14:54:11;3.78;;;2.50;;
59169;SDS011;52474;52.236;5.114;2023-08-21T14:56:36;4.88;;;2.75;;
59169;SDS011;52474;52.236;5.114;2023-08-21T14:59:02;7.65;;;4.15;;